Aeroporto :







RITROVATECI SU...

 
LOGIN :

Iscrizione | Disclaimer

   EN    FR    IT 

 









Sommario :    VFR   VFR Marginale   IFR   IFR Intensivo   IFR Molto Intensivo
Visibilità : 
Base nubi : 
>= 8 km
>= 3000ft
5 / 8 km
1000 / 3000 ft
1500m / 5 km
500 / 1000 ft
800 / 1500m
200 / 500 ft
< 800m
< 200 ft
Simboli :   Temporali  Nebbia  Neve Forte  Precipitazioni Forti  Vento > 20 kt






- Altitudine del aeroporto : 244 ft
- Codice IATA : YQB


CYQB - Quebec - Jean Lesage Int.

ULTIMO METAR :
  • 251600Z 07015KT 30SM FEW013 FEW160 SCT200 BKN240 M03/M06 A3027 RMK SF1AC1CI2CS4 SF TR AC TR SLP256

METARs OBSOLETI :
  • 251500Z 07014KT 30SM FEW009 FEW160 BKN190 M03/M06 A3029 RMK SF1AC1CI5 SF TR AC TR SLP264
  • 251400Z 06013KT 30SM FEW009 FEW160 SCT190 M04/M06 A3031 RMK SF1AC2CI2 SF TR SLP271

TAF TAF CYQB
Valido dal 25 a 12 ore il 26 a 12 ore UTC


251138Z 2512/2612 06012KT P6SM FEW009 BKN120
FM251800 07012KT P6SM FEW020 BKN120
FM260300 07015G25KT 3SM -SN OVC020
PROB30 2603/2605 3SM -SNPL OVC008
FM260500 07018G28KT 11/2SM -SN OVC008
PROB40 2605/2609 3SM -FZRA -PL BR
FM260900 07018G28KT 2SM -SN OVC008
PROB30 2609/2612 3SM -SNPL RMK NXT FCST BY 251800Z
ATIS : ENG : +1 418-871-6893 FRA : +1 418-871-6895



MetMap, La meteo Aeronautica in un colpo d'occhio ! - Copyright ORBIFLY Dicembre 2007 - Disclaimer

ORBIFLY MET'MAP TEAM :

Programmazione e sviluppo : Alexandra Zaïnal
Concezione : Baudouin d'Aumeries
Aiuto per la programmazione : Marc-Olivier Méhu
Supporto tecnico e logistico : Manuel Goepfert
Aiuto per la traduzione : Arnaldo La Scala

Contatto : metmap@orbifly.com




FONTI E CREDITI :

   NOAA